Time;durP1;ratioP1;P1;durP2;ratioP2;P2;SDS_P1;SDS_P2;PMS_P1;PMS_P2;Temp;Humidity;BMP_temperature;BMP_pressure;BME280_temperature;BME280_humidity;BME280_pressure;Samples;Min_cycle;Max_cycle;Signal;HPM_P1;HPM_P2
2023/05/02 00:00:15;;;;;;;;;;;;;;;18.94;63.33;98007.25;2072413;28;20293;-86
2023/05/02 00:01:16;;;;;;;;;;;;;;;18.93;63.28;98002.94;2071799;28;19979;-87
2023/05/02 00:02:17;;;;;;;;;;;;;;;18.94;63.38;98002.72;2075565;28;19935;-85
2023/05/02 00:03:18;;;;;;;;;;;;;;;18.92;63.21;98006.69;2074424;28;19971;-87
2023/05/02 00:04:19;;;;;;;;;;;;;;;18.92;63.44;98002.13;2072877;28;20020;-87
2023/05/02 00:05:21;;;;;;;;;;;;;;;18.93;63.42;98005.63;2073259;28;20403;-85
2023/05/02 00:06:21;;;;;;;;;;;;;;;18.93;63.14;98011.00;2073286;28;19929;-86
2023/05/02 00:07:23;;;;;;;;;;;;;;;18.94;63.03;98005.41;2075668;28;20485;-86
2023/05/02 00:08:23;;;;;;;;;;;;;;;18.92;63.33;98002.13;2072595;28;19929;-86
2023/05/02 00:09:25;;;;;;;;;;;;;;;18.93;63.31;98001.06;2076082;28;19969;-85
2023/05/02 00:10:27;;;;;;;;;;;;;;;18.93;63.20;98003.75;2074481;28;19933;-86
2023/05/02 00:11:28;;;;;;;;;;;;;;;18.93;63.01;97998.38;2071434;28;19951;-87
2023/05/02 00:12:29;;;;;;;;;;;;;;;18.93;63.33;98001.06;2074345;28;20344;-85
2023/05/02 00:13:30;;;;;;;;;;;;;;;18.93;63.18;97994.88;2075219;28;19936;-86
2023/05/02 00:14:31;;;;;;;;;;;;;;;18.93;63.18;97992.19;2073029;28;19974;-86
2023/05/02 00:15:33;;;;;;;;;;;;;;;18.93;63.31;97989.50;2075814;28;20875;-86
2023/05/02 00:16:33;;;;;;;;;;;;;;;18.92;63.03;97998.63;2073719;28;20308;-86
2023/05/02 00:17:35;;;;;;;;;;;;;;;18.91;63.33;97986.22;2075154;28;20025;-86
2023/05/02 00:18:36;;;;;;;;;;;;;;;18.91;63.11;97989.72;2075514;28;19936;-85
2023/05/02 00:19:38;;;;;;;;;;;;;;;18.91;63.27;97987.03;2073233;28;19936;-85
2023/05/02 00:20:40;;;;;;;;;;;;;;;18.91;63.01;97986.22;2075026;28;20696;-86
2023/05/02 00:21:41;;;;;;;;;;;;;;;18.91;62.96;97987.03;2074468;28;19929;-85
2023/05/02 00:22:42;;;;;;;;;;;;;;;18.91;62.99;97981.66;2074503;28;20422;-85
2023/05/02 00:23:43;;;;;;;;;;;;;;;18.90;63.27;97990.75;2073459;28;19933;-86
2023/05/02 00:24:43;;;;;;;;;;;;;;;18.90;62.99;97971.13;2074650;28;20027;-85
2023/05/02 00:25:47;;;;;;;;;;;;;;;18.92;63.14;97979.81;2074769;28;20363;-86
2023/05/02 00:26:47;;;;;;;;;;;;;;;18.91;63.29;97978.16;2072625;28;19929;-87
2023/05/02 00:27:49;;;;;;;;;;;;;;;18.92;63.05;97975.25;2071766;28;19940;-88
2023/05/02 00:28:50;;;;;;;;;;;;;;;18.90;63.08;97974.66;2075137;28;19929;-87
2023/05/02 00:29:52;;;;;;;;;;;;;;;18.91;62.95;97975.47;2073387;28;19929;-86
2023/05/02 00:30:52;;;;;;;;;;;;;;;18.91;62.92;97978.16;2074622;28;19936;-86
2023/05/02 00:31:54;;;;;;;;;;;;;;;18.90;63.02;97968.47;2075585;28;19935;-87
2023/05/02 00:32:54;;;;;;;;;;;;;;;18.91;63.01;97973.59;2071914;28;20482;-86
2023/05/02 00:33:58;;;;;;;;;;;;;;;18.90;62.92;97971.97;2075364;28;19929;-86
2023/05/02 00:34:59;;;;;;;;;;;;;;;18.90;62.93;97969.28;2074312;28;19929;-87
2023/05/02 00:36:00;;;;;;;;;;;;;;;18.92;62.95;97964.50;2071277;28;20625;-86
2023/05/02 00:37:01;;;;;;;;;;;;;;;18.90;62.84;97966.59;2073757;28;20671;-88
2023/05/02 00:38:02;;;;;;;;;;;;;;;18.91;62.91;97962.84;2073151;28;19929;-88
2023/05/02 00:39:03;;;;;;;;;;;;;;;18.90;63.12;97961.22;2071846;28;20370;-88
2023/05/02 00:40:06;;;;;;;;;;;;;;;18.90;62.93;97955.84;2074874;28;19933;-86
2023/05/02 00:41:08;;;;;;;;;;;;;;;18.87;62.96;97958.97;2074735;28;20904;-86
2023/05/02 00:42:10;;;;;;;;;;;;;;;18.88;63.20;97947.16;2070908;28;19937;-85
2023/05/02 00:43:10;;;;;;;;;;;;;;;18.87;63.00;97958.97;2073078;28;19964;-86
2023/05/02 00:44:12;;;;;;;;;;;;;;;18.88;62.92;97946.34;2073175;28;19929;-86
2023/05/02 00:45:12;;;;;;;;;;;;;;;18.88;62.97;97949.03;2075169;28;20407;-86
2023/05/02 00:46:14;;;;;;;;;;;;;;;18.87;63.15;97945.53;2073585;28;19929;-86
2023/05/02 00:47:14;;;;;;;;;;;;;;;18.87;63.08;97942.84;2074061;28;20292;-85
2023/05/02 00:48:19;;;;;;;;;;;;;;;18.90;63.01;97946.97;2075554;28;19955;-87
2023/05/02 00:49:19;;;;;;;;;;;;;;;18.88;62.99;97938.28;2072854;28;20769;-86
2023/05/02 00:50:21;;;;;;;;;;;;;;;18.89;63.06;97953.38;2074302;28;19929;-86
2023/05/02 00:51:22;;;;;;;;;;;;;;;18.87;63.08;97937.47;2075524;28;19978;-85
2023/05/02 00:52:24;;;;;;;;;;;;;;;18.86;62.91;97935.84;2066652;28;20751;-86
2023/05/02 00:53:24;;;;;;;;;;;;;;;18.89;62.85;97939.94;2076113;28;20415;-85
2023/05/02 00:54:26;;;;;;;;;;;;;;;18.87;62.76;97936.66;2073272;28;19973;-86
2023/05/02 00:55:26;;;;;;;;;;;;;;;18.86;62.82;97935.84;2071966;28;19929;-88
2023/05/02 00:56:32;;;;;;;;;;;;;;;18.87;63.06;97936.66;2070500;28;19929;-86
2023/05/02 00:57:33;;;;;;;;;;;;;;;18.87;62.85;97937.47;2070499;28;20553;-86
2023/05/02 00:58:34;;;;;;;;;;;;;;;18.88;62.83;97939.09;2074625;28;19929;-86
2023/05/02 00:59:35;;;;;;;;;;;;;;;18.87;63.10;97942.84;2073004;28;20031;-86
2023/05/02 01:00:43;;;;;;;;;;;;;;;18.85;63.04;97934.19;2075295;28;20379;-86
2023/05/02 01:01:51;;;;;;;;;;;;;;;18.85;62.79;97930.69;2073339;28;20380;-85
2023/05/02 01:02:58;;;;;;;;;;;;;;;18.84;62.92;97929.03;2073614;28;19933;-85
2023/05/02 01:04:03;;;;;;;;;;;;;;;18.84;63.03;97931.72;2073424;28;19936;-86
2023/05/02 01:05:10;;;;;;;;;;;;;;;18.85;63.05;97928.81;2073167;28;19961;-85
2023/05/02 01:06:18;;;;;;;;;;;;;;;18.85;62.96;97931.50;2064782;28;19984;-88
2023/05/02 01:07:25;;;;;;;;;;;;;;;18.87;63.00;97932.09;2073386;28;19929;-86
2023/05/02 01:08:35;;;;;;;;;;;;;;;18.85;62.87;97928.00;2073657;28;20032;-86
2023/05/02 01:09:41;;;;;;;;;;;;;;;18.85;62.88;97923.44;2074729;28;19929;-85
2023/05/02 01:10:48;;;;;;;;;;;;;;;18.86;62.94;97919.72;2074975;28;20020;-86
2023/05/02 01:12:10;;;;;;;;;;;;;;;18.84;62.63;97911.06;2072054;28;19960;-85
2023/05/02 01:13:14;;;;;;;;;;;;;;;18.86;62.75;97916.19;2073228;28;20526;-87
2023/05/02 01:14:15;;;;;;;;;;;;;;;18.86;62.90;97914.34;2062948;28;19929;-86
2023/05/02 01:15:19;;;;;;;;;;;;;;;18.85;62.80;97918.06;2069763;28;19929;-88
2023/05/02 01:16:22;;;;;;;;;;;;;;;18.87;63.08;97921.34;2071756;28;19936;-86
2023/05/02 01:17:26;;;;;;;;;;;;;;;18.86;62.78;97919.72;2073099;28;19968;-86
2023/05/02 01:18:29;;;;;;;;;;;;;;;18.85;62.66;97919.94;2065075;28;19980;-87
2023/05/02 01:19:33;;;;;;;;;;;;;;;18.86;62.74;97917.03;2072587;28;19933;-86
2023/05/02 01:20:35;;;;;;;;;;;;;;;18.85;62.98;97917.25;2075036;28;19950;-85
2023/05/02 01:21:37;;;;;;;;;;;;;;;18.83;63.02;97912.06;2069094;28;19936;-86
2023/05/02 01:22:39;;;;;;;;;;;;;;;18.84;62.93;97913.75;2072736;28;19933;-86
2023/05/02 01:23:46;;;;;;;;;;;;;;;18.83;62.73;97916.63;2073726;28;20015;-85
2023/05/02 01:24:52;;;;;;;;;;;;;;;18.84;62.79;97911.06;2073196;28;19960;-86
2023/05/02 01:26:01;;;;;;;;;;;;;;;18.85;62.65;97914.56;2073965;28;19932;-86
2023/05/02 01:27:10;;;;;;;;;;;;;;;18.85;62.67;97911.88;2074416;28;19930;-86
2023/05/02 01:28:20;;;;;;;;;;;;;;;18.84;62.95;97911.06;2072097;28;19959;-86
2023/05/02 01:29:22;;;;;;;;;;;;;;;18.83;62.93;97914.75;2063775;28;19937;-86
2023/05/02 01:30:26;;;;;;;;;;;;;;;18.83;62.94;97912.06;2074156;28;20096;-85
2023/05/02 01:31:30;;;;;;;;;;;;;;;18.82;62.82;97906.94;2073980;28;19988;-86
2023/05/02 01:32:32;;;;;;;;;;;;;;;18.82;62.70;97909.63;2073331;28;19964;-85
2023/05/02 01:33:35;;;;;;;;;;;;;;;18.82;62.57;97913.13;2075037;28;20481;-86
2023/05/02 01:34:37;;;;;;;;;;;;;;;18.83;62.91;97897.81;2073530;28;19936;-86
2023/05/02 01:35:40;;;;;;;;;;;;;;;18.82;62.54;97902.38;2071978;28;19935;-85
2023/05/02 01:36:42;;;;;;;;;;;;;;;18.83;62.92;97898.66;2074457;28;19929;-85
2023/05/02 01:37:45;;;;;;;;;;;;;;;18.81;62.83;97908.81;2073940;28;21456;-86
2023/05/02 01:38:46;;;;;;;;;;;;;;;18.82;62.96;97904.25;2073624;28;19993;-85
2023/05/02 01:39:49;;;;;;;;;;;;;;;18.82;62.68;97902.38;2074956;28;19929;-87
2023/05/02 01:40:51;;;;;;;;;;;;;;;18.84;62.80;97910.25;2074677;28;20012;-85
2023/05/02 01:41:54;;;;;;;;;;;;;;;18.83;62.73;97897.81;2075065;28;20465;-86
2023/05/02 01:42:56;;;;;;;;;;;;;;;18.82;62.60;97902.38;2075857;28;19968;-86
2023/05/02 01:43:59;;;;;;;;;;;;;;;18.82;62.70;97901.56;2071981;28;20505;-87
2023/05/02 01:45:02;;;;;;;;;;;;;;;18.82;62.82;97896.19;2072863;28;19972;-85
2023/05/02 01:46:08;;;;;;;;;;;;;;;18.81;62.75;97900.75;2072685;28;19933;-86
2023/05/02 01:47:08;;;;;;;;;;;;;;;18.78;63.00;97894.97;2074156;28;20028;-86
2023/05/02 01:48:10;;;;;;;;;;;;;;;18.80;62.87;97888.34;2073370;28;19929;-86
2023/05/02 01:49:11;;;;;;;;;;;;;;;18.81;62.88;97889.19;2072390;28;19930;-86
2023/05/02 01:50:15;;;;;;;;;;;;;;;18.81;62.67;97890.00;2073743;28;19976;-85
2023/05/02 01:51:17;;;;;;;;;;;;;;;18.80;62.76;97893.72;2072363;28;19929;-84
2023/05/02 01:52:21;;;;;;;;;;;;;;;18.81;62.94;97895.38;2072182;28;19929;-86
2023/05/02 01:53:24;;;;;;;;;;;;;;;18.81;62.53;97895.38;2069943;28;20021;-87
2023/05/02 01:54:26;;;;;;;;;;;;;;;18.79;62.98;97892.09;2073611;28;19957;-85
2023/05/02 01:55:27;;;;;;;;;;;;;;;18.79;62.71;97889.41;2074603;28;19994;-88
2023/05/02 01:56:30;;;;;;;;;;;;;;;18.81;62.70;97895.38;2074141;28;19937;-83
2023/05/02 01:57:31;;;;;;;;;;;;;;;18.80;62.81;97893.72;2073304;28;19940;-87
2023/05/02 01:58:34;;;;;;;;;;;;;;;18.80;62.52;97891.03;2073730;28;20923;-86
2023/05/02 01:59:40;;;;;;;;;;;;;;;18.80;62.74;97893.72;2075118;28;19936;-85
2023/05/02 02:00:44;;;;;;;;;;;;;;;18.80;62.41;97888.34;2073471;28;20387;-85
2023/05/02 02:01:45;;;;;;;;;;;;;;;18.79;62.78;97889.41;2071851;28;19929;-85
2023/05/02 02:02:47;;;;;;;;;;;;;;;18.80;62.50;97882.16;2072933;28;20502;-86
2023/05/02 02:03:51;;;;;;;;;;;;;;;18.77;62.78;97880.72;2071148;28;19934;-86
2023/05/02 02:04:53;;;;;;;;;;;;;;;18.78;62.58;97884.22;2075265;28;19929;-86
2023/05/02 02:05:54;;;;;;;;;;;;;;;18.78;62.97;97886.94;2070890;28;20027;-84
2023/05/02 02:06:58;;;;;;;;;;;;;;;18.77;62.62;97885.28;2072163;28;19929;-86
2023/05/02 02:07:59;;;;;;;;;;;;;;;18.76;62.77;97881.78;2071636;28;19929;-86
2023/05/02 02:09:00;;;;;;;;;;;;;;;18.75;62.92;97872.91;2074786;28;20320;-86
2023/05/02 02:10:01;;;;;;;;;;;;;;;18.75;62.80;97880.16;2075887;28;20043;-85
2023/05/02 02:11:07;;;;;;;;;;;;;;;18.74;62.94;97876.63;2079402;28;19929;-86
2023/05/02 02:12:11;;;;;;;;;;;;;;;18.75;62.60;97875.59;2074921;28;20016;-85
2023/05/02 02:13:17;;;;;;;;;;;;;;;18.75;62.72;97872.09;2074858;28;20450;-86
2023/05/02 02:14:19;;;;;;;;;;;;;;;18.77;62.74;97875.34;2075772;28;19930;-86
2023/05/02 02:15:24;;;;;;;;;;;;;;;18.77;62.53;97874.53;2072302;28;19930;-86
2023/05/02 02:16:30;;;;;;;;;;;;;;;18.77;62.58;97872.69;2070549;28;19976;-86
2023/05/02 02:17:36;;;;;;;;;;;;;;;18.76;62.59;97876.41;2076705;28;19929;-86
2023/05/02 02:18:38;;;;;;;;;;;;;;;18.77;62.56;97875.34;2075378;28;21308;-87
2023/05/02 02:19:40;;;;;;;;;;;;;;;18.78;62.71;97874.34;2074661;28;19979;-85
2023/05/02 02:20:42;;;;;;;;;;;;;;;18.77;62.74;97867.31;2076302;28;21013;-85
2023/05/02 02:21:47;;;;;;;;;;;;;;;18.75;62.53;97874.78;2074408;28;20005;-86
2023/05/02 02:22:48;;;;;;;;;;;;;;;18.76;62.65;97871.03;2075891;28;20635;-86
2023/05/02 02:23:51;;;;;;;;;;;;;;;18.76;62.81;97876.41;2075485;28;20007;-87
2023/05/02 02:24:55;;;;;;;;;;;;;;;18.75;62.39;97867.53;2074827;28;20424;-86
2023/05/02 02:25:57;;;;;;;;;;;;;;;18.74;62.77;97865.06;2074233;28;21856;-86
2023/05/02 02:26:58;;;;;;;;;;;;;;;18.74;62.78;97863.19;2074335;28;19956;-85
2023/05/02 02:28:03;;;;;;;;;;;;;;;18.75;62.65;97864.03;2075962;28;20406;-86
2023/05/02 02:29:03;;;;;;;;;;;;;;;18.74;62.48;97867.75;2075055;28;19983;-86
2023/05/02 02:30:06;;;;;;;;;;;;;;;18.74;62.60;97863.19;2073571;28;19987;-86
2023/05/02 02:31:06;;;;;;;;;;;;;;;18.74;62.48;97862.38;2072195;28;19932;-86
2023/05/02 02:32:09;;;;;;;;;;;;;;;18.75;62.67;97859.47;2075513;28;20506;-86
2023/05/02 02:33:10;;;;;;;;;;;;;;;18.74;62.66;97863.19;2075281;28;19929;-87
2023/05/02 02:34:16;;;;;;;;;;;;;;;18.73;62.78;97861.53;2074669;28;19929;-86
2023/05/02 02:35:17;;;;;;;;;;;;;;;18.75;62.49;97864.03;2074972;28;19980;-86
2023/05/02 02:36:21;;;;;;;;;;;;;;;18.72;62.80;97870.66;2073822;28;19933;-86
2023/05/02 02:37:25;;;;;;;;;;;;;;;18.73;62.46;97866.91;2076158;28;21012;-85
2023/05/02 02:38:31;;;;;;;;;;;;;;;18.72;62.72;97865.28;2075187;28;19929;-86
2023/05/02 02:39:38;;;;;;;;;;;;;;;18.72;62.76;97872.50;2074843;28;20832;-86
2023/05/02 02:40:44;;;;;;;;;;;;;;;18.72;62.90;97864.44;2074590;28;19971;-85
2023/05/02 02:41:53;;;;;;;;;;;;;;;18.70;62.71;97867.34;2075564;28;19982;-87
2023/05/02 02:42:59;;;;;;;;;;;;;;;18.72;62.77;97861.75;2072212;28;19936;-86
2023/05/02 02:44:04;;;;;;;;;;;;;;;18.71;62.52;97865.47;2072650;28;20692;-86
2023/05/02 02:45:14;;;;;;;;;;;;;;;18.71;62.70;97865.47;2074198;28;19933;-86
2023/05/02 02:46:21;;;;;;;;;;;;;;;18.72;62.63;97867.97;2072910;28;20016;-86
2023/05/02 02:47:27;;;;;;;;;;;;;;;18.70;62.75;97867.34;2074456;28;20477;-85
2023/05/02 02:48:32;;;;;;;;;;;;;;;18.71;62.58;97868.16;2072244;28;19933;-85
2023/05/02 02:49:39;;;;;;;;;;;;;;;18.70;62.86;97870.03;2071753;28;19929;-85
2023/05/02 02:50:47;;;;;;;;;;;;;;;18.69;62.75;97873.78;2073453;28;20020;-87
2023/05/02 02:51:53;;;;;;;;;;;;;;;18.70;62.38;97872.72;2072833;28;19936;-87
2023/05/02 02:52:56;;;;;;;;;;;;;;;18.70;62.68;97877.28;2073311;28;20019;-86
2023/05/02 02:54:01;;;;;;;;;;;;;;;18.70;62.57;97874.59;2069531;28;19937;-86
2023/05/02 02:55:06;;;;;;;;;;;;;;;18.71;62.34;97868.97;2073870;28;19996;-85
2023/05/02 02:56:13;;;;;;;;;;;;;;;18.72;62.64;97875.16;2073614;28;19933;-85
2023/05/02 02:57:17;;;;;;;;;;;;;;;18.72;62.29;97878.69;2074402;28;19932;-86
2023/05/02 02:58:25;;;;;;;;;;;;;;;18.72;62.40;97872.50;2072475;28;20374;-86
2023/05/02 02:59:37;;;;;;;;;;;;;;;18.70;62.50;97872.72;2074861;28;20392;-86
2023/05/02 03:00:39;;;;;;;;;;;;;;;18.70;62.40;97877.28;2075278;28;19979;-86
2023/05/02 03:01:42;;;;;;;;;;;;;;;18.71;62.43;97878.91;2074982;28;20400;-85
2023/05/02 03:02:46;;;;;;;;;;;;;;;18.71;62.52;97878.91;2074960;28;20020;-85
2023/05/02 03:03:48;;;;;;;;;;;;;;;18.71;62.54;97881.59;2068316;28;20029;-88
2023/05/02 03:04:51;;;;;;;;;;;;;;;18.72;62.57;97880.53;2072879;28;20403;-85
2023/05/02 03:05:52;;;;;;;;;;;;;;;18.71;62.32;97876.22;2072146;28;19936;-86
2023/05/02 03:06:54;;;;;;;;;;;;;;;18.70;62.38;97877.28;2073368;28;19967;-86
2023/05/02 03:07:54;;;;;;;;;;;;;;;18.69;62.65;97871.09;2074244;28;20534;-86
2023/05/02 03:08:56;;;;;;;;;;;;;;;18.69;62.39;97872.94;2075749;28;19936;-86
2023/05/02 03:09:57;;;;;;;;;;;;;;;18.69;62.36;97879.16;2073370;28;19972;-85
2023/05/02 03:10:58;;;;;;;;;;;;;;;18.70;62.57;97877.28;2073030;28;20906;-86
2023/05/02 03:11:59;;;;;;;;;;;;;;;18.69;62.41;97878.31;2072824;28;19929;-85
2023/05/02 03:13:00;;;;;;;;;;;;;;;18.68;62.38;97869.44;2074446;28;19940;-85
2023/05/02 03:14:01;;;;;;;;;;;;;;;18.67;62.49;97877.72;2072380;28;19929;-85
2023/05/02 03:15:09;;;;;;;;;;;;;;;18.68;62.42;97874.00;2075055;28;19936;-86
2023/05/02 03:16:32;;;;;;;;;;;;;;;18.68;62.32;97874.00;2073472;28;19965;-86
2023/05/02 03:17:34;;;;;;;;;;;;;;;18.66;62.50;97876.88;2073206;28;20363;-86
2023/05/02 03:18:36;;;;;;;;;;;;;;;18.68;62.34;97879.34;2073484;28;19955;-85
2023/05/02 03:19:37;;;;;;;;;;;;;;;18.67;62.43;97875.84;2072428;28;19947;-85
2023/05/02 03:20:38;;;;;;;;;;;;;;;18.66;62.51;97876.88;2072674;28;20027;-87
2023/05/02 03:21:40;;;;;;;;;;;;;;;18.62;62.47;97869.50;2072271;28;20435;-86
2023/05/02 03:22:41;;;;;;;;;;;;;;;18.68;62.31;97879.34;2073285;28;19952;-85
2023/05/02 03:23:42;;;;;;;;;;;;;;;18.66;62.65;97876.88;2073366;28;20019;-85
2023/05/02 03:24:44;;;;;;;;;;;;;;;18.68;62.40;97868.63;2071432;28;19937;-85
2023/05/02 03:25:44;;;;;;;;;;;;;;;18.67;62.49;97869.66;2069296;28;20044;-85
2023/05/02 03:26:47;;;;;;;;;;;;;;;18.66;62.53;97881.44;2071574;28;19940;-86
2023/05/02 03:27:48;;;;;;;;;;;;;;;18.66;62.57;97881.44;2074902;28;19936;-85
2023/05/02 03:28:50;;;;;;;;;;;;;;;18.65;62.45;97874.44;2070837;28;19982;-86
2023/05/02 03:29:51;;;;;;;;;;;;;;;18.67;62.69;97875.84;2074373;28;19929;-85
2023/05/02 03:30:52;;;;;;;;;;;;;;;18.66;62.79;97876.06;2072870;28;19930;-86
2023/05/02 03:31:53;;;;;;;;;;;;;;;18.66;62.62;97876.06;2072716;28;20497;-86
2023/05/02 03:32:54;;;;;;;;;;;;;;;18.67;62.51;97877.72;2071709;28;19941;-86
2023/05/02 03:33:57;;;;;;;;;;;;;;;18.65;62.41;97869.06;2072234;28;19929;-86
2023/05/02 03:34:58;;;;;;;;;;;;;;;18.64;62.39;97873.63;2071480;28;19968;-85
2023/05/02 03:35:59;;;;;;;;;;;;;;;18.65;62.57;97880.63;2070174;28;19956;-85
2023/05/02 03:37:01;;;;;;;;;;;;;;;18.65;62.38;97871.75;2071642;28;20700;-87
2023/05/02 03:38:01;;;;;;;;;;;;;;;18.65;62.23;97872.56;2071013;28;20028;-85
2023/05/02 03:39:03;;;;;;;;;;;;;;;18.66;62.42;97868.00;2071340;28;20046;-86
2023/05/02 03:40:04;;;;;;;;;;;;;;;18.66;62.43;97868.00;2073106;28;19929;-85
2023/05/02 03:41:06;;;;;;;;;;;;;;;18.65;62.30;97875.25;2074718;28;19979;-85
2023/05/02 03:42:07;;;;;;;;;;;;;;;18.65;62.41;97869.06;2073368;28;19933;-86
2023/05/02 03:43:08;;;;;;;;;;;;;;;18.63;62.39;97866.59;2074283;28;20023;-85
2023/05/02 03:44:09;;;;;;;;;;;;;;;18.63;62.39;97877.31;2072252;28;19929;-86
2023/05/02 03:45:11;;;;;;;;;;;;;;;18.64;62.32;97862.06;2065195;28;19936;-85
2023/05/02 03:46:11;;;;;;;;;;;;;;;18.66;62.32;97870.69;2072846;28;19972;-85
2023/05/02 03:47:13;;;;;;;;;;;;;;;18.64;62.53;97868.25;2073904;28;19929;-85
2023/05/02 03:48:13;;;;;;;;;;;;;;;18.64;62.50;97862.88;2070075;28;19940;-86
2023/05/02 03:49:18;;;;;;;;;;;;;;;18.65;62.54;97869.06;2068812;28;19933;-86
2023/05/02 03:50:19;;;;;;;;;;;;;;;18.64;62.46;97867.44;2072410;28;19973;-87
2023/05/02 03:51:20;;;;;;;;;;;;;;;18.65;62.48;97863.69;2073670;28;19936;-85
2023/05/02 03:52:21;;;;;;;;;;;;;;;18.64;62.59;97867.44;2072730;28;20888;-86
2023/05/02 03:53:22;;;;;;;;;;;;;;;18.63;62.52;97857.72;2073494;28;19968;-85
2023/05/02 03:54:23;;;;;;;;;;;;;;;18.63;62.51;97868.47;2070951;28;19988;-87
2023/05/02 03:55:27;;;;;;;;;;;;;;;18.61;62.61;97866.00;2074436;28;19929;-86
2023/05/02 03:56:27;;;;;;;;;;;;;;;18.62;62.31;97864.13;2074343;28;20311;-85
2023/05/02 03:57:29;;;;;;;;;;;;;;;18.63;62.51;97868.47;2072132;28;19961;-85
2023/05/02 03:58:30;;;;;;;;;;;;;;;18.63;62.36;97868.47;2072590;28;20470;-86
2023/05/02 03:59:32;;;;;;;;;;;;;;;18.62;62.49;97872.19;2072281;28;19937;-85
2023/05/02 04:00:33;;;;;;;;;;;;;;;18.64;62.27;97867.44;2072092;28;19929;-85
2023/05/02 04:01:34;;;;;;;;;;;;;;;18.62;62.62;97869.50;2074410;28;19929;-85
2023/05/02 04:02:35;;;;;;;;;;;;;;;18.63;62.46;97866.59;2073370;28;19979;-86
2023/05/02 04:03:36;;;;;;;;;;;;;;;18.62;62.37;97870.31;2072277;28;19995;-85
2023/05/02 04:04:39;;;;;;;;;;;;;;;18.62;62.32;97870.31;2074840;28;20354;-86
2023/05/02 04:05:41;;;;;;;;;;;;;;;18.61;62.30;97868.69;2073409;28;19930;-87
2023/05/02 04:06:41;;;;;;;;;;;;;;;18.61;62.29;97878.59;2073515;28;19929;-85
2023/05/02 04:07:43;;;;;;;;;;;;;;;18.60;62.49;97877.78;2075412;28;19972;-85
2023/05/02 04:08:43;;;;;;;;;;;;;;;18.62;62.29;97880.25;2074616;28;20063;-86
2023/05/02 04:09:45;;;;;;;;;;;;;;;18.61;62.29;97882.13;2074474;28;19932;-86
2023/05/02 04:10:46;;;;;;;;;;;;;;;18.61;62.14;97881.28;2075336;28;19929;-86
2023/05/02 04:11:48;;;;;;;;;;;;;;;18.60;62.32;97876.97;2072137;28;19944;-86
2023/05/02 04:12:48;;;;;;;;;;;;;;;18.59;62.68;97878.84;2071862;28;19929;-85
2023/05/02 04:13:50;;;;;;;;;;;;;;;18.62;62.31;97885.63;2072077;28;19965;-85
2023/05/02 04:14:50;;;;;;;;;;;;;;;18.61;62.37;97887.50;2062144;28;19972;-85
2023/05/02 04:15:52;;;;;;;;;;;;;;;18.60;62.56;97888.53;2073858;28;19936;-85
2023/05/02 04:16:52;;;;;;;;;;;;;;;18.59;62.46;97892.25;2074625;28;19965;-86
2023/05/02 04:17:54;;;;;;;;;;;;;;;18.61;62.30;97886.66;2073922;28;19929;-85
2023/05/02 04:18:54;;;;;;;;;;;;;;;18.60;62.44;97888.53;2071618;28;19936;-86
2023/05/02 04:19:57;;;;;;;;;;;;;;;18.61;62.45;97900.06;2070334;28;20303;-85
2023/05/02 04:20:58;;;;;;;;;;;;;;;18.61;62.29;97895.56;2074017;28;19961;-87
2023/05/02 04:21:59;;;;;;;;;;;;;;;18.59;62.13;97896.81;2074218;28;19937;-87
2023/05/02 04:23:00;;;;;;;;;;;;;;;18.60;62.40;97893.88;2073967;28;19978;-85
2023/05/02 04:24:01;;;;;;;;;;;;;;;18.60;62.46;97893.88;2074125;28;21413;-86
2023/05/02 04:25:02;;;;;;;;;;;;;;;18.58;62.31;97893.28;2073451;28;19933;-86
2023/05/02 04:26:03;;;;;;;;;;;;;;;18.58;62.50;97889.78;2073788;28;19929;-86
2023/05/02 04:27:04;;;;;;;;;;;;;;;18.59;62.39;97888.75;2071512;28;19937;-86
2023/05/02 04:28:05;;;;;;;;;;;;;;;18.58;62.46;97892.47;2072711;28;19929;-85
2023/05/02 04:29:06;;;;;;;;;;;;;;;18.57;62.53;97894.34;2074890;28;19979;-85
2023/05/02 04:30:09;;;;;;;;;;;;;;;18.58;62.47;97895.16;2072078;28;19936;-86
2023/05/02 04:31:09;;;;;;;;;;;;;;;18.58;62.17;97895.97;2074332;28;19983;-85
2023/05/02 04:32:11;;;;;;;;;;;;;;;18.57;62.30;97894.34;2072929;28;19929;-86
2023/05/02 04:33:12;;;;;;;;;;;;;;;18.57;62.62;97894.34;2073190;28;20818;-87
2023/05/02 04:34:13;;;;;;;;;;;;;;;18.56;62.58;97897.25;2073635;28;21067;-86
2023/05/02 04:35:16;;;;;;;;;;;;;;;18.57;62.46;97898.91;2072252;28;20323;-85
2023/05/02 04:36:17;;;;;;;;;;;;;;;18.56;62.44;97902.63;2071295;28;19965;-86
2023/05/02 04:37:18;;;;;;;;;;;;;;;18.57;62.34;97898.91;2072919;28;20650;-85
2023/05/02 04:38:20;;;;;;;;;;;;;;;18.54;62.41;97898.28;2073404;28;19944;-85
2023/05/02 04:39:23;;;;;;;;;;;;;;;18.57;62.50;97899.72;2072689;28;19936;-86
2023/05/02 04:40:25;;;;;;;;;;;;;;;18.57;62.28;97901.56;2072922;28;19936;-85
2023/05/02 04:41:26;;;;;;;;;;;;;;;18.57;62.05;97901.56;2073979;28;19929;-85
2023/05/02 04:42:28;;;;;;;;;;;;;;;18.57;62.68;97902.41;2075562;28;19929;-86
2023/05/02 04:43:29;;;;;;;;;;;;;;;18.57;62.23;97906.94;2072686;28;20010;-85
2023/05/02 04:44:30;;;;;;;;;;;;;;;18.57;62.42;97907.75;2074844;28;19929;-86
2023/05/02 04:45:32;;;;;;;;;;;;;;;18.57;62.22;97909.63;2073455;28;20243;-85
2023/05/02 04:46:35;;;;;;;;;;;;;;;18.56;62.24;97913.38;2073995;28;19929;-86
2023/05/02 04:47:36;;;;;;;;;;;;;;;18.55;62.17;97915.22;2072123;28;19933;-85
2023/05/02 04:48:40;;;;;;;;;;;;;;;18.55;62.41;97915.22;2075670;28;19975;-85
2023/05/02 04:49:42;;;;;;;;;;;;;;;18.56;62.26;97918.75;2072875;28;19929;-86
2023/05/02 04:50:45;;;;;;;;;;;;;;;18.57;62.37;97920.38;2072008;28;20019;-85
2023/05/02 04:51:47;;;;;;;;;;;;;;;18.57;62.25;97920.38;2074204;28;20376;-85
2023/05/02 04:52:48;;;;;;;;;;;;;;;18.56;62.20;97921.44;2070712;28;19929;-86
2023/05/02 04:53:50;;;;;;;;;;;;;;;18.56;62.46;97916.06;2071366;28;19976;-88
2023/05/02 04:54:50;;;;;;;;;;;;;;;18.56;62.24;97919.56;2073007;28;19971;-86
2023/05/02 04:55:52;;;;;;;;;;;;;;;18.55;62.21;97920.59;2072312;28;19936;-84
2023/05/02 04:56:52;;;;;;;;;;;;;;;18.54;62.43;97918.94;2074506;28;19936;-86
2023/05/02 04:57:54;;;;;;;;;;;;;;;18.57;62.48;97925.75;2073977;28;19968;-85
2023/05/02 04:58:54;;;;;;;;;;;;;;;18.56;62.43;97924.94;2075148;28;19968;-86
2023/05/02 04:59:56;;;;;;;;;;;;;;;18.56;62.27;97924.13;2074233;28;19929;-85
2023/05/02 05:00:56;;;;;;;;;;;;;;;18.54;62.39;97922.44;2072842;28;19929;-85
2023/05/02 05:01:58;;;;;;;;;;;;;;;18.54;62.48;97925.13;2073861;28;19929;-85
2023/05/02 05:02:59;;;;;;;;;;;;;;;18.55;62.25;97928.63;2071060;28;19955;-85
2023/05/02 05:04:00;;;;;;;;;;;;;;;18.55;62.45;97923.28;2072979;28;20485;-85
2023/05/02 05:05:01;;;;;;;;;;;;;;;18.54;62.19;97924.31;2072278;28;19936;-85
2023/05/02 05:06:04;;;;;;;;;;;;;;;18.54;62.28;97924.31;2072082;28;19968;-86
2023/05/02 05:07:04;;;;;;;;;;;;;;;18.53;62.40;97925.38;2072172;28;20012;-86
2023/05/02 05:08:06;;;;;;;;;;;;;;;18.54;62.44;97927.00;2072819;28;19929;-86
2023/05/02 05:09:07;;;;;;;;;;;;;;;18.53;62.18;97928.06;2071623;28;19972;-86
2023/05/02 05:10:10;;;;;;;;;;;;;;;18.52;62.05;97924.53;2074579;28;19955;-86
2023/05/02 05:11:11;;;;;;;;;;;;;;;18.53;62.23;97930.75;2074101;28;20332;-86
2023/05/02 05:12:12;;;;;;;;;;;;;;;18.53;62.17;97936.94;2070867;28;19990;-86
2023/05/02 05:13:14;;;;;;;;;;;;;;;18.53;62.21;97934.25;2073160;28;20015;-85
2023/05/02 05:14:14;;;;;;;;;;;;;;;18.52;62.33;97932.59;2071461;28;19929;-86
2023/05/02 05:15:24;;;;;;;;;;;;;;;18.52;62.29;97932.59;2074005;28;19929;-88
2023/05/02 05:16:24;;;;;;;;;;;;;;;18.52;62.36;97935.28;2073544;28;20407;-85
2023/05/02 05:17:26;;;;;;;;;;;;;;;18.51;62.49;97933.63;2071686;28;19937;-85
2023/05/02 05:18:26;;;;;;;;;;;;;;;18.52;62.46;97937.97;2073283;28;19961;-86
2023/05/02 05:19:28;;;;;;;;;;;;;;;18.52;62.46;97934.44;2069674;28;20611;-86
2023/05/02 05:20:28;;;;;;;;;;;;;;;18.53;62.29;97941.50;2071391;28;20020;-86
2023/05/02 05:21:32;;;;;;;;;;;;;;;18.52;62.13;97935.28;2072330;28;20411;-86
2023/05/02 05:22:37;;;;;;;;;;;;;;;18.51;62.49;97939.00;2074924;28;19963;-85
2023/05/02 05:23:38;;;;;;;;;;;;;;;18.52;62.17;97934.44;2074980;28;19929;-85
2023/05/02 05:24:39;;;;;;;;;;;;;;;18.51;62.40;97938.19;2073331;28;19935;-86
2023/05/02 05:25:40;;;;;;;;;;;;;;;18.51;62.14;97941.69;2072530;28;20015;-86